DHL4PP EDDF-LGAV
Flight info
| Callsign | DHL4PP |
|---|---|
| Flight time | N/A |
| Altitude | 39000 |
| Route | CINDY2D CINDY Z74 LAMPU DCT NOMBO Y161 MAH/N0468F390 L173 OTT M867 RADIZ DCT NEMEK DCT GLOMY DCT INLOT DCT PINDO UL607 XORKI |
| Aircraft | A346/H-SDE2E3FGHIJ3J4J5M1P2RWXYZ/LB1D1 |
Departure
| Time | 2026-05-07 23:59 |
|---|---|
| Airport | Frankfurt Main Airport (EDDF) |
Arrival
| Time | N/A |
|---|---|
| Airport | Athens Eleftherios Venizelos International Airport (LGAV) |
| Time | Latitude | Longitude | Altitude | Speed | Heading |
|---|---|---|---|---|---|
| 2026-05-07 23:25 | 50.04698 | 8.56865 | 364 ft | 0 kts | 294° |
| 2026-05-07 23:42 | 50.04698 | 8.56866 | 364 ft | 0 kts | 294° |
| 2026-05-07 23:43 | 50.04689 | 8.56897 | 366 ft | 0 kts | 295° |
| 2026-05-07 23:44 | 50.04678 | 8.56935 | 371 ft | 0 kts | 295° |
| 2026-05-07 23:44 | 50.04667 | 8.56971 | 371 ft | 0 kts | 295° |
| 2026-05-07 23:44 | 50.04665 | 8.56977 | 371 ft | 0 kts | 295° |
| 2026-05-07 23:45 | 50.04665 | 8.56978 | 371 ft | 0 kts | 295° |
| 2026-05-07 23:45 | 50.04663 | 8.56984 | 371 ft | 0 kts | 295° |
| 2026-05-07 23:45 | 50.04656 | 8.57007 | 368 ft | 0 kts | 295° |
| 2026-05-07 23:48 | 50.04657 | 8.57002 | 370 ft | 1 kts | 287° |
| 2026-05-07 23:48 | 50.04659 | 8.56985 | 372 ft | 3 kts | 274° |
| 2026-05-07 23:48 | 50.04653 | 8.56951 | 366 ft | 4 kts | 237° |
| 2026-05-07 23:49 | 50.04625 | 8.56925 | 367 ft | 7 kts | 205° |
| 2026-05-07 23:49 | 50.04573 | 8.56899 | 372 ft | 8 kts | 195° |
| 2026-05-07 23:49 | 50.04524 | 8.56878 | 367 ft | 8 kts | 195° |
| 2026-05-07 23:49 | 50.04460 | 8.56856 | 373 ft | 11 kts | 191° |
| 2026-05-07 23:50 | 50.04374 | 8.56836 | 368 ft | 14 kts | 189° |
| 2026-05-07 23:50 | 50.04297 | 8.56811 | 372 ft | 10 kts | 192° |
| 2026-05-07 23:50 | 50.04240 | 8.56742 | 366 ft | 12 kts | 246° |
| 2026-05-07 23:50 | 50.04202 | 8.56591 | 365 ft | 17 kts | 249° |
| 2026-05-07 23:51 | 50.04157 | 8.56402 | 368 ft | 14 kts | 250° |
| 2026-05-07 23:51 | 50.04119 | 8.56242 | 362 ft | 18 kts | 250° |
| 2026-05-07 23:51 | 50.04071 | 8.56041 | 364 ft | 22 kts | 250° |
| 2026-05-07 23:51 | 50.04014 | 8.55803 | 363 ft | 25 kts | 250° |
| 2026-05-07 23:52 | 50.03961 | 8.55580 | 365 ft | 15 kts | 249° |
| 2026-05-07 23:52 | 50.03919 | 8.55410 | 361 ft | 19 kts | 249° |
| 2026-05-07 23:52 | 50.03869 | 8.55203 | 363 ft | 22 kts | 249° |
| 2026-05-07 23:52 | 50.03819 | 8.54992 | 362 ft | 19 kts | 250° |
| 2026-05-07 23:53 | 50.03770 | 8.54778 | 360 ft | 23 kts | 250° |
| 2026-05-07 23:53 | 50.03738 | 8.54643 | 358 ft | 11 kts | 250° |
| 2026-05-07 23:53 | 50.03707 | 8.54512 | 360 ft | 11 kts | 249° |
| 2026-05-07 23:53 | 50.03674 | 8.54378 | 358 ft | 15 kts | 249° |
| 2026-05-07 23:54 | 50.03630 | 8.54201 | 358 ft | 19 kts | 249° |
| 2026-05-07 23:54 | 50.03579 | 8.53988 | 357 ft | 23 kts | 250° |
| 2026-05-07 23:54 | 50.03521 | 8.53744 | 353 ft | 25 kts | 250° |
| 2026-05-07 23:54 | 50.03460 | 8.53488 | 356 ft | 27 kts | 250° |
| 2026-05-07 23:55 | 50.03429 | 8.53375 | 357 ft | 8 kts | 223° |
| 2026-05-07 23:55 | 50.03364 | 8.53369 | 354 ft | 11 kts | 160° |
| 2026-05-07 23:55 | 50.03328 | 8.53406 | 355 ft | 7 kts | 136° |
| 2026-05-07 23:55 | 50.03296 | 8.53460 | 354 ft | 4 kts | 132° |
| 2026-05-07 23:56 | 50.03279 | 8.53502 | 355 ft | 5 kts | 98° |
| 2026-05-07 23:56 | 50.03290 | 8.53574 | 352 ft | 8 kts | 72° |
| 2026-05-07 23:56 | 50.03310 | 8.53670 | 354 ft | 0 kts | 69° |
| 2026-05-07 23:58 | 50.03314 | 8.53684 | 353 ft | 11 kts | 69° |
| 2026-05-07 23:58 | 50.03434 | 8.54181 | 359 ft | 85 kts | 69° |
| 2026-05-07 23:58 | 50.03720 | 8.55375 | 359 ft | 147 kts | 69° |
| 2026-05-07 23:58 | 50.04131 | 8.57087 | 582 ft | 178 kts | 68° |
| 2026-05-07 23:59 | 50.04560 | 8.58912 | 1324 ft | 179 kts | 70° |
| 2026-05-07 23:59 | 50.04936 | 8.60679 | 2030 ft | 158 kts | 74° |
| 2026-05-07 23:59 | 50.05259 | 8.62476 | 2453 ft | 185 kts | 76° |
| 2026-05-07 23:59 | 50.05575 | 8.64509 | 3029 ft | 200 kts | 77° |
| 2026-05-08 00:00 | 50.05868 | 8.66701 | 3730 ft | 212 kts | 79° |
| 2026-05-08 00:00 | 50.06140 | 8.69010 | 4505 ft | 222 kts | 76° |
| 2026-05-08 00:00 | 50.06690 | 8.71344 | 5180 ft | 236 kts | 69° |
| 2026-05-08 00:00 | 50.06860 | 8.73887 | 6087 ft | 242 kts | 105° |
| 2026-05-08 00:01 | 50.05999 | 8.76097 | 7032 ft | 243 kts | 143° |
| 2026-05-08 00:01 | 50.04457 | 8.77042 | 7909 ft | 242 kts | 181° |
| 2026-05-08 00:01 | 50.02761 | 8.76840 | 8731 ft | 252 kts | 182° |
| 2026-05-08 00:01 | 50.00987 | 8.77384 | 9332 ft | 273 kts | 154° |
| 2026-05-08 00:02 | 49.99467 | 8.79276 | 9956 ft | 291 kts | 128° |
| 2026-05-08 00:02 | 49.98277 | 8.81872 | 10723 ft | 300 kts | 131° |
| 2026-05-08 00:02 | 49.96789 | 8.84265 | 11303 ft | 317 kts | 137° |
| 2026-05-08 00:02 | 49.95132 | 8.86670 | 11824 ft | 335 kts | 138° |
| 2026-05-08 00:03 | 49.93395 | 8.89237 | 12331 ft | 354 kts | 137° |
| 2026-05-08 00:03 | 49.91589 | 8.91992 | 12815 ft | 373 kts | 136° |
| 2026-05-08 00:03 | 49.89725 | 8.94904 | 13451 ft | 385 kts | 136° |
| 2026-05-08 00:03 | 49.87835 | 8.97893 | 14319 ft | 390 kts | 135° |
| 2026-05-08 00:04 | 49.85936 | 9.00910 | 15180 ft | 393 kts | 135° |
| 2026-05-08 00:04 | 49.84012 | 9.03970 | 16022 ft | 397 kts | 135° |
| 2026-05-08 00:04 | 49.82074 | 9.07054 | 16867 ft | 401 kts | 135° |
| 2026-05-08 00:04 | 49.80118 | 9.10162 | 17664 ft | 405 kts | 136° |
| 2026-05-08 00:05 | 49.78133 | 9.13311 | 18390 ft | 411 kts | 136° |
| 2026-05-08 00:05 | 49.76127 | 9.16491 | 19044 ft | 415 kts | 136° |
| 2026-05-08 00:05 | 49.74131 | 9.19763 | 19715 ft | 420 kts | 133° |
| 2026-05-08 00:05 | 49.72195 | 9.23180 | 20388 ft | 424 kts | 133° |
| 2026-05-08 00:06 | 49.70248 | 9.26629 | 21045 ft | 428 kts | 133° |
| 2026-05-08 00:06 | 49.68250 | 9.30161 | 21733 ft | 432 kts | 133° |
| 2026-05-08 00:06 | 49.66260 | 9.33676 | 22423 ft | 437 kts | 133° |
| 2026-05-08 00:06 | 49.64234 | 9.37208 | 23094 ft | 441 kts | 135° |
| 2026-05-08 00:07 | 49.62039 | 9.40480 | 23605 ft | 447 kts | 141° |
| 2026-05-08 00:07 | 49.59571 | 9.43452 | 24084 ft | 451 kts | 147° |
| 2026-05-08 00:07 | 49.56914 | 9.46052 | 24646 ft | 454 kts | 151° |
| 2026-05-08 00:07 | 49.54186 | 9.48538 | 25197 ft | 458 kts | 152° |
| 2026-05-08 00:08 | 49.51419 | 9.51033 | 25705 ft | 462 kts | 152° |
| 2026-05-08 00:08 | 49.48634 | 9.53548 | 26243 ft | 466 kts | 152° |
| 2026-05-08 00:08 | 49.45824 | 9.56096 | 26768 ft | 470 kts | 151° |
| 2026-05-08 00:08 | 49.42997 | 9.58664 | 27302 ft | 474 kts | 151° |
| 2026-05-08 00:09 | 49.40142 | 9.61260 | 27815 ft | 478 kts | 151° |
| 2026-05-08 00:09 | 49.37311 | 9.63974 | 28384 ft | 481 kts | 148° |
| 2026-05-08 00:09 | 49.34583 | 9.66954 | 29151 ft | 480 kts | 144° |
| 2026-05-08 00:09 | 49.31960 | 9.70211 | 29987 ft | 478 kts | 141° |
| 2026-05-08 00:10 | 49.29541 | 9.73614 | 30634 ft | 478 kts | 137° |
| 2026-05-08 00:10 | 49.27181 | 9.77218 | 31238 ft | 478 kts | 137° |
| 2026-05-08 00:10 | 49.24799 | 9.80871 | 31851 ft | 478 kts | 137° |
| 2026-05-08 00:10 | 49.22481 | 9.84422 | 32408 ft | 478 kts | 137° |
| 2026-05-08 00:11 | 49.20122 | 9.88021 | 32979 ft | 478 kts | 137° |
| 2026-05-08 00:11 | 49.17730 | 9.91657 | 33555 ft | 478 kts | 138° |
| 2026-05-08 00:11 | 49.15367 | 9.95241 | 34143 ft | 478 kts | 138° |
| 2026-05-08 00:11 | 49.13006 | 9.98812 | 34627 ft | 477 kts | 138° |
| 2026-05-08 00:12 | 49.10646 | 10.02375 | 35110 ft | 477 kts | 138° |
| 2026-05-08 00:12 | 49.08281 | 10.05942 | 35542 ft | 477 kts | 138° |
| 2026-05-08 00:12 | 49.05922 | 10.09492 | 35967 ft | 477 kts | 139° |
| 2026-05-08 00:12 | 49.03508 | 10.12971 | 36380 ft | 477 kts | 140° |
| 2026-05-08 00:13 | 49.01069 | 10.16396 | 36786 ft | 477 kts | 140° |
| 2026-05-08 00:13 | 48.98633 | 10.19803 | 37184 ft | 477 kts | 140° |
| 2026-05-08 00:13 | 48.96188 | 10.23232 | 37548 ft | 477 kts | 140° |
| 2026-05-08 00:13 | 48.93748 | 10.26667 | 37875 ft | 479 kts | 140° |
| 2026-05-08 00:14 | 48.91337 | 10.30072 | 38143 ft | 481 kts | 140° |
| 2026-05-08 00:14 | 48.88881 | 10.33538 | 38422 ft | 482 kts | 140° |
| 2026-05-08 00:14 | 48.86378 | 10.37063 | 38704 ft | 484 kts | 140° |
| 2026-05-08 00:14 | 48.83907 | 10.40547 | 38925 ft | 486 kts | 139° |
| 2026-05-08 00:15 | 48.81542 | 10.44129 | 39089 ft | 488 kts | 136° |
| 2026-05-08 00:15 | 48.79169 | 10.47936 | 39104 ft | 489 kts | 136° |
| 2026-05-08 00:15 | 48.74488 | 10.55436 | 39110 ft | 489 kts | 136° |
| 2026-05-08 00:16 | 48.69796 | 10.62923 | 39102 ft | 489 kts | 136° |
| 2026-05-08 00:16 | 48.65101 | 10.70390 | 39097 ft | 489 kts | 136° |
| 2026-05-08 00:17 | 48.60400 | 10.77846 | 39098 ft | 489 kts | 136° |
| 2026-05-08 00:17 | 48.55713 | 10.85307 | 39078 ft | 489 kts | 136° |
| 2026-05-08 00:18 | 48.51830 | 10.91528 | 39080 ft | 489 kts | 136° |
| 2026-05-08 00:18 | 48.46351 | 11.00209 | 39095 ft | 488 kts | 137° |
| 2026-05-08 00:19 | 48.42421 | 11.06323 | 39096 ft | 488 kts | 137° |
| 2026-05-08 00:19 | 48.37686 | 11.13669 | 39091 ft | 488 kts | 137° |
| 2026-05-08 00:20 | 48.32964 | 11.21025 | 39088 ft | 489 kts | 135° |
| 2026-05-08 00:20 | 48.28791 | 11.29140 | 39068 ft | 493 kts | 125° |
| 2026-05-08 00:21 | 48.25595 | 11.38281 | 39069 ft | 496 kts | 114° |
| 2026-05-08 00:21 | 48.23486 | 11.48163 | 39071 ft | 498 kts | 105° |
| 2026-05-08 00:22 | 48.21881 | 11.58294 | 39072 ft | 498 kts | 105° |
| 2026-05-08 00:22 | 48.20223 | 11.68386 | 39067 ft | 497 kts | 108° |
| 2026-05-08 00:23 | 48.17664 | 11.77980 | 39071 ft | 494 kts | 120° |
| 2026-05-08 00:23 | 48.13937 | 11.86577 | 39072 ft | 490 kts | 131° |
| 2026-05-08 00:24 | 48.09272 | 11.93957 | 39076 ft | 486 kts | 140° |
| 2026-05-08 00:24 | 48.04257 | 12.00746 | 39071 ft | 487 kts | 141° |
| 2026-05-08 00:25 | 47.99240 | 12.07545 | 39067 ft | 488 kts | 141° |
| 2026-05-08 00:25 | 47.94225 | 12.14375 | 39073 ft | 488 kts | 141° |
| 2026-05-08 00:26 | 47.89073 | 12.20953 | 39076 ft | 487 kts | 143° |
| 2026-05-08 00:26 | 47.83890 | 12.27466 | 39079 ft | 487 kts | 143° |
| 2026-05-08 00:27 | 47.78705 | 12.33960 | 39078 ft | 487 kts | 143° |
| 2026-05-08 00:27 | 47.73516 | 12.40437 | 39072 ft | 487 kts | 143° |
| 2026-05-08 00:28 | 47.68316 | 12.46892 | 39077 ft | 487 kts | 143° |
| 2026-05-08 00:28 | 47.63103 | 12.53348 | 39079 ft | 487 kts | 142° |
| 2026-05-08 00:29 | 47.58147 | 12.60241 | 39087 ft | 489 kts | 139° |
| 2026-05-08 00:29 | 47.53224 | 12.67217 | 39081 ft | 489 kts | 139° |
| 2026-05-08 00:30 | 47.48301 | 12.74175 | 39088 ft | 489 kts | 140° |
| 2026-05-08 00:30 | 47.43371 | 12.81116 | 39088 ft | 489 kts | 140° |
| 2026-05-08 00:31 | 47.38432 | 12.88046 | 39073 ft | 489 kts | 140° |
| 2026-05-08 00:31 | 47.33493 | 12.94959 | 39085 ft | 489 kts | 140° |
| 2026-05-08 00:32 | 47.28550 | 13.01858 | 39079 ft | 489 kts | 140° |
| 2026-05-08 00:32 | 47.23612 | 13.08732 | 39076 ft | 488 kts | 140° |
| 2026-05-08 00:33 | 47.18670 | 13.15597 | 39078 ft | 488 kts | 140° |
| 2026-05-08 00:33 | 47.13731 | 13.22435 | 39080 ft | 488 kts | 140° |
| 2026-05-08 00:34 | 47.08785 | 13.29265 | 39067 ft | 488 kts | 140° |
| 2026-05-08 00:34 | 47.03826 | 13.36091 | 39079 ft | 489 kts | 140° |
| 2026-05-08 00:35 | 46.98859 | 13.42911 | 39072 ft | 489 kts | 140° |
| 2026-05-08 00:35 | 46.93882 | 13.49731 | 39082 ft | 489 kts | 140° |
| 2026-05-08 00:36 | 46.88912 | 13.56523 | 39068 ft | 489 kts | 140° |
| 2026-05-08 00:36 | 46.83933 | 13.63306 | 39075 ft | 489 kts | 140° |
| 2026-05-08 00:37 | 46.78951 | 13.70077 | 39076 ft | 489 kts | 140° |
| 2026-05-08 00:38 | 46.71470 | 13.80211 | 39058 ft | 489 kts | 141° |
| 2026-05-08 00:38 | 46.66475 | 13.86956 | 39064 ft | 489 kts | 141° |
| 2026-05-08 00:39 | 46.61487 | 13.93671 | 39067 ft | 488 kts | 141° |
| 2026-05-08 00:39 | 46.56490 | 14.00380 | 39074 ft | 488 kts | 141° |
| 2026-05-08 00:40 | 46.51494 | 14.07070 | 39071 ft | 488 kts | 141° |
| 2026-05-08 00:40 | 46.46491 | 14.13758 | 39082 ft | 489 kts | 141° |
| 2026-05-08 00:41 | 46.41472 | 14.20440 | 39066 ft | 489 kts | 141° |
| 2026-05-08 00:41 | 46.36461 | 14.27103 | 39064 ft | 489 kts | 142° |
| 2026-05-08 00:42 | 46.31440 | 14.33755 | 39067 ft | 489 kts | 142° |
| 2026-05-08 00:42 | 46.26417 | 14.40394 | 39052 ft | 489 kts | 142° |
| 2026-05-08 00:43 | 46.21398 | 14.47015 | 39066 ft | 488 kts | 142° |
| 2026-05-08 00:43 | 46.16372 | 14.53626 | 39063 ft | 488 kts | 142° |
| 2026-05-08 00:44 | 46.11344 | 14.60218 | 39068 ft | 488 kts | 142° |
| 2026-05-08 00:44 | 46.06312 | 14.66801 | 39066 ft | 488 kts | 142° |
| 2026-05-08 00:45 | 46.01278 | 14.73369 | 39062 ft | 488 kts | 142° |
| 2026-05-08 00:45 | 45.97698 | 14.78034 | 39065 ft | 488 kts | 142° |